createdAt,value
2019-05-10T00:00:06.324Z,99.90
2019-05-10T00:02:53.500Z,99.90
2019-05-10T00:05:39.830Z,99.90
2019-05-10T00:08:26.599Z,99.90
2019-05-10T00:11:06.014Z,99.90
2019-05-10T00:13:52.957Z,99.90
2019-05-10T00:16:21.580Z,99.90
2019-05-10T00:18:49.938Z,99.90
2019-05-10T00:21:18.468Z,99.90
2019-05-10T00:23:46.862Z,99.90
2019-05-10T00:26:15.562Z,99.90
2019-05-10T00:28:45.709Z,99.90
2019-05-10T00:31:14.388Z,99.90
2019-05-10T00:33:45.233Z,99.90
2019-05-10T00:36:13.978Z,99.90
2019-05-10T00:38:42.815Z,99.90
2019-05-10T00:41:11.855Z,99.90
2019-05-10T00:43:40.777Z,99.90
2019-05-10T00:46:09.220Z,99.90
2019-05-10T00:48:37.822Z,99.90
2019-05-10T00:51:06.219Z,99.90
2019-05-10T00:53:34.935Z,99.90
2019-05-10T00:56:03.287Z,99.90
2019-05-10T00:58:31.936Z,99.90
2019-05-10T01:01:00.443Z,99.90
2019-05-10T01:03:29.018Z,99.90
2019-05-10T01:05:57.651Z,99.90
2019-05-10T01:08:26.422Z,99.90
2019-05-10T01:10:54.939Z,99.90
2019-05-10T01:13:25.679Z,99.90
2019-05-10T01:15:54.301Z,99.90
2019-05-10T01:18:23.980Z,99.90
2019-05-10T01:20:52.369Z,99.90
2019-05-10T01:23:21.272Z,99.90
2019-05-10T01:25:49.954Z,99.90
2019-05-10T01:28:19.183Z,99.90
2019-05-10T01:30:47.818Z,99.90
2019-05-10T01:33:18.812Z,99.90
2019-05-10T01:35:47.770Z,99.90
2019-05-10T01:38:19.927Z,99.90
2019-05-10T01:40:48.755Z,99.90
2019-05-10T01:43:21.446Z,99.90
2019-05-10T01:45:50.889Z,99.90
2019-05-10T01:48:23.062Z,99.90
2019-05-10T01:50:51.554Z,99.90
2019-05-10T01:53:24.596Z,99.90
2019-05-10T01:55:53.166Z,99.90
2019-05-10T01:58:24.999Z,99.90
2019-05-10T02:00:53.849Z,99.90
2019-05-10T02:03:26.548Z,99.90
2019-05-10T02:05:54.978Z,99.90
2019-05-10T02:08:27.771Z,99.90
2019-05-10T02:10:56.366Z,99.90
2019-05-10T02:13:29.414Z,99.90
2019-05-10T02:15:58.434Z,99.90
2019-05-10T02:18:30.625Z,99.90
2019-05-10T02:20:59.529Z,99.90
2019-05-10T02:23:32.659Z,99.90
2019-05-10T02:26:09.575Z,99.90
2019-05-10T02:28:35.870Z,99.90
2019-05-10T02:31:03.689Z,99.90
2019-05-10T02:33:38.654Z,99.90
2019-05-10T02:36:07.198Z,99.90
2019-05-10T02:38:38.112Z,99.90
2019-05-10T02:41:07.305Z,99.90
2019-05-10T02:43:39.261Z,99.90
2019-05-10T02:46:08.034Z,99.90
2019-05-10T02:48:39.601Z,99.90
2019-05-10T02:51:08.400Z,99.90
2019-05-10T02:53:47.534Z,99.90
2019-05-10T02:56:30.253Z,99.90
2019-05-10T02:58:48.163Z,99.90
2019-05-10T03:01:17.695Z,99.90
2019-05-10T03:03:46.743Z,99.90
2019-05-10T03:06:15.932Z,99.90
2019-05-10T03:08:52.150Z,99.90
2019-05-10T03:11:20.736Z,99.90
2019-05-10T03:13:52.087Z,99.90
2019-05-10T03:16:22.073Z,99.90
2019-05-10T03:18:52.196Z,99.90
2019-05-10T03:21:22.219Z,99.90
2019-05-10T03:23:50.334Z,99.90
2019-05-10T03:26:19.038Z,99.90
2019-05-10T03:28:50.915Z,99.90
2019-05-10T03:31:23.105Z,99.90
2019-05-10T03:33:57.213Z,99.90
2019-05-10T03:36:27.310Z,99.90
2019-05-10T03:38:55.714Z,99.90
2019-05-10T03:41:24.789Z,99.90
2019-05-10T03:43:56.222Z,99.90
2019-05-10T03:46:25.818Z,99.90
2019-05-10T03:48:56.682Z,99.90
2019-05-10T03:51:25.141Z,99.90
2019-05-10T03:53:56.949Z,99.90
2019-05-10T03:56:25.420Z,99.90
2019-05-10T03:58:57.945Z,99.90
2019-05-10T04:01:27.004Z,99.90
2019-05-10T04:03:59.634Z,99.90
2019-05-10T04:06:28.443Z,99.90
2019-05-10T04:09:00.895Z,99.90
2019-05-10T04:11:29.722Z,99.90
2019-05-10T04:14:02.198Z,99.90
2019-05-10T04:16:31.280Z,99.90
2019-05-10T04:19:03.801Z,99.90
2019-05-10T04:21:32.706Z,99.90
2019-05-10T04:24:04.787Z,99.90
2019-05-10T04:26:34.120Z,99.90
2019-05-10T04:29:09.727Z,99.90
2019-05-10T04:31:38.580Z,99.90
2019-05-10T04:34:09.799Z,99.90
2019-05-10T04:36:43.374Z,99.60
2019-05-10T04:39:12.244Z,99.90
2019-05-10T04:41:41.257Z,99.00
2019-05-10T04:44:12.286Z,98.30
2019-05-10T04:46:42.445Z,98.20
2019-05-10T04:49:13.793Z,97.90
2019-05-10T04:51:42.323Z,98.10
2019-05-10T04:54:14.311Z,98.20
2019-05-10T04:56:42.841Z,98.70
2019-05-10T04:59:15.228Z,98.70
2019-05-10T05:01:44.219Z,97.90
2019-05-10T05:04:16.726Z,97.60
2019-05-10T05:06:45.980Z,98.40
2019-05-10T05:09:22.272Z,98.00
2019-05-10T05:11:51.166Z,96.70
2019-05-10T05:14:22.802Z,98.00
2019-05-10T05:16:51.769Z,97.90
2019-05-10T05:19:21.993Z,98.20
2019-05-10T05:21:50.484Z,97.30
2019-05-10T05:24:23.069Z,97.10
2019-05-10T05:26:51.888Z,97.10
2019-05-10T05:29:25.386Z,95.90
2019-05-10T05:32:00.801Z,95.70
2019-05-10T05:34:26.745Z,96.20
2019-05-10T05:36:55.330Z,96.30
2019-05-10T05:39:29.442Z,96.30
2019-05-10T05:42:03.961Z,96.70
2019-05-10T05:44:37.012Z,97.00
2019-05-10T05:47:08.272Z,96.70
2019-05-10T05:49:38.872Z,96.90
2019-05-10T05:52:07.722Z,96.70
2019-05-10T05:54:37.807Z,97.10
2019-05-10T05:57:08.350Z,97.20
2019-05-10T05:59:39.774Z,97.30
2019-05-10T06:02:11.554Z,97.20
2019-05-10T06:04:46.209Z,96.70
2019-05-10T06:07:14.026Z,96.30
2019-05-10T06:09:46.547Z,95.90
2019-05-10T06:12:17.048Z,96.00
2019-05-10T06:14:49.607Z,95.50
2019-05-10T06:17:18.011Z,96.50
2019-05-10T06:19:47.716Z,95.50
2019-05-10T06:22:16.261Z,94.90
2019-05-10T06:24:51.776Z,94.30
2019-05-10T06:27:16.628Z,93.00
2019-05-10T06:29:46.413Z,94.10
2019-05-10T06:32:14.929Z,93.40
2019-05-10T06:34:44.666Z,93.30
2019-05-10T06:37:13.461Z,92.00
2019-05-10T06:39:42.532Z,92.20
2019-05-10T06:42:12.187Z,92.30
2019-05-10T06:44:42.043Z,91.50
2019-05-10T06:47:11.392Z,91.60
2019-05-10T06:49:50.498Z,91.50
2019-05-10T06:52:16.210Z,90.60
2019-05-10T06:54:46.139Z,90.00
2019-05-10T06:57:17.647Z,90.10
2019-05-10T06:59:49.675Z,89.80
2019-05-10T07:02:19.987Z,90.20
2019-05-10T07:04:51.008Z,90.10
2019-05-10T07:07:33.019Z,90.30
2019-05-10T07:10:15.842Z,90.10
2019-05-10T07:12:21.129Z,88.60
2019-05-10T07:14:52.635Z,90.30
2019-05-10T07:17:22.765Z,86.60
2019-05-10T07:19:54.881Z,85.50
2019-05-10T07:22:28.843Z,89.00
2019-05-10T07:25:07.596Z,85.40
2019-05-10T07:27:38.361Z,83.00
2019-05-10T07:30:08.038Z,83.60
2019-05-10T07:32:36.730Z,81.20
2019-05-10T07:35:12.563Z,75.40
2019-05-10T07:37:47.651Z,69.40
2019-05-10T07:40:12.490Z,68.70
2019-05-10T07:42:45.687Z,69.70
2019-05-10T07:45:12.736Z,71.80
2019-05-10T07:47:45.039Z,71.80
2019-05-10T07:50:14.421Z,71.90
2019-05-10T07:52:45.501Z,75.50
2019-05-10T07:55:18.709Z,75.40
2019-05-10T07:57:45.887Z,75.40
2019-05-10T08:00:18.075Z,76.40
2019-05-10T08:02:55.037Z,74.70
2019-05-10T08:05:18.954Z,72.90
2019-05-10T08:07:49.524Z,70.90
2019-05-10T08:10:21.420Z,66.40
2019-05-10T08:12:49.507Z,59.80
2019-05-10T08:15:24.839Z,59.00
2019-05-10T08:17:52.275Z,55.30
2019-05-10T08:20:34.983Z,57.90
2019-05-10T08:22:52.627Z,62.20
2019-05-10T08:25:29.103Z,65.30
2019-05-10T08:27:56.143Z,64.60
2019-05-10T08:30:42.753Z,54.60
2019-05-10T08:33:13.616Z,48.80
2019-05-10T08:35:45.569Z,45.30
2019-05-10T08:38:13.834Z,48.00
2019-05-10T08:40:43.238Z,48.30
2019-05-10T08:43:16.023Z,47.90
2019-05-10T08:45:45.016Z,50.60
2019-05-10T08:48:13.903Z,50.50
2019-05-10T08:50:52.749Z,48.90
2019-05-10T08:53:16.444Z,50.80
2019-05-10T08:55:44.156Z,51.30
2019-05-10T08:58:23.920Z,46.70
2019-05-10T09:01:10.167Z,48.00
2019-05-10T09:03:24.799Z,52.30
2019-05-10T09:05:53.788Z,56.30
2019-05-10T09:08:28.511Z,59.90
2019-05-10T09:10:58.931Z,64.00
2019-05-10T09:13:37.120Z,69.80
2019-05-10T09:16:02.705Z,70.50
2019-05-10T09:18:33.150Z,73.20
2019-05-10T09:21:08.905Z,74.50
2019-05-10T09:23:35.425Z,71.30
2019-05-10T09:26:10.608Z,61.00
2019-05-10T09:28:35.314Z,57.80
2019-05-10T09:31:17.505Z,59.80
2019-05-10T09:33:34.622Z,63.30
2019-05-10T09:36:04.765Z,67.70
2019-05-10T09:38:38.953Z,66.50
2019-05-10T09:41:04.699Z,66.10
2019-05-10T09:43:33.922Z,64.10
2019-05-10T09:46:06.174Z,64.10
2019-05-10T09:48:35.384Z,63.00
2019-05-10T09:51:07.813Z,64.50
2019-05-10T09:53:38.367Z,68.10
2019-05-10T09:56:07.856Z,68.90
2019-05-10T09:58:38.703Z,71.70
2019-05-10T10:01:14.777Z,73.50
2019-05-10T10:03:43.174Z,74.40
2019-05-10T10:06:11.322Z,76.30
2019-05-10T10:08:43.596Z,76.80
2019-05-10T10:11:15.825Z,76.50
2019-05-10T10:13:43.998Z,77.50
2019-05-10T10:16:14.936Z,78.30
2019-05-10T10:18:47.479Z,78.10
2019-05-10T10:21:18.902Z,78.80
2019-05-10T10:23:45.391Z,76.80
2019-05-10T10:26:20.375Z,75.80
2019-05-10T10:28:49.592Z,73.70
2019-05-10T10:31:27.061Z,72.20
2019-05-10T10:33:58.014Z,71.70
2019-05-10T10:36:21.423Z,68.40
2019-05-10T10:38:50.751Z,67.60
2019-05-10T10:41:25.813Z,70.00
2019-05-10T10:43:50.638Z,73.20
2019-05-10T10:46:19.913Z,75.90
2019-05-10T10:48:51.036Z,77.00
2019-05-10T10:51:19.441Z,78.40
2019-05-10T10:53:48.315Z,78.90
2019-05-10T10:56:19.393Z,77.50
2019-05-10T10:58:50.118Z,75.70
2019-05-10T11:01:25.394Z,73.50
2019-05-10T11:03:50.989Z,72.10
2019-05-10T11:06:20.779Z,71.80
2019-05-10T11:08:51.864Z,68.80
2019-05-10T11:11:20.596Z,65.60
2019-05-10T11:13:57.485Z,64.00
2019-05-10T11:16:20.797Z,65.70
2019-05-10T11:18:51.895Z,66.00
2019-05-10T11:21:23.402Z,68.50
2019-05-10T11:23:52.354Z,70.40
2019-05-10T11:26:26.625Z,70.90
2019-05-10T11:28:52.769Z,71.90
2019-05-10T11:31:21.613Z,69.50
2019-05-10T11:33:56.114Z,61.30
2019-05-10T11:36:31.158Z,64.10
2019-05-10T11:39:01.777Z,66.20
2019-05-10T11:41:32.666Z,67.10
2019-05-10T11:44:05.261Z,64.30
2019-05-10T11:46:33.530Z,64.40
2019-05-10T11:49:02.860Z,61.00
2019-05-10T11:51:33.804Z,63.10
2019-05-10T11:54:02.532Z,64.00
2019-05-10T11:56:32.245Z,62.10
2019-05-10T11:59:02.485Z,60.30
2019-05-10T12:01:31.436Z,61.70
2019-05-10T12:04:12.995Z,62.20
2019-05-10T12:06:41.235Z,63.20
2019-05-10T12:09:07.834Z,63.90
2019-05-10T12:11:40.812Z,62.80
2019-05-10T12:14:07.868Z,62.60
2019-05-10T12:16:42.148Z,64.50
2019-05-10T12:19:17.048Z,64.10
2019-05-10T12:21:40.892Z,66.40
2019-05-10T12:24:26.239Z,67.90
2019-05-10T12:29:17.192Z,67.80
2019-05-10T12:31:47.469Z,70.20
2019-05-10T12:34:21.879Z,66.70
2019-05-10T12:36:57.571Z,67.20
2019-05-10T12:39:24.470Z,67.70
2019-05-10T12:41:53.320Z,68.30
2019-05-10T12:44:24.109Z,71.30
2019-05-10T12:46:54.253Z,74.20
2019-05-10T12:49:23.552Z,81.20
2019-05-10T12:51:52.089Z,87.00
2019-05-10T12:54:26.075Z,90.70
2019-05-10T12:56:57.185Z,92.00
2019-05-10T12:59:29.687Z,92.60
2019-05-10T13:01:58.390Z,92.50
2019-05-10T13:04:39.653Z,92.00
2019-05-10T13:06:57.307Z,92.90
2019-05-10T13:09:37.919Z,92.70
2019-05-10T13:12:03.707Z,92.10
2019-05-10T13:14:29.216Z,91.20
2019-05-10T13:16:58.012Z,91.30
2019-05-10T13:19:26.589Z,90.10
2019-05-10T13:21:58.751Z,88.40
2019-05-10T13:24:26.159Z,86.00
2019-05-10T13:26:55.213Z,81.20
2019-05-10T13:29:24.021Z,79.60
2019-05-10T13:31:52.711Z,81.00
2019-05-10T13:34:24.229Z,84.20
2019-05-10T13:36:51.674Z,82.90
2019-05-10T13:39:25.527Z,83.80
2019-05-10T13:41:50.663Z,82.80
2019-05-10T13:44:19.158Z,87.30
2019-05-10T13:46:50.684Z,85.20
2019-05-10T13:49:19.139Z,84.20
2019-05-10T13:51:47.794Z,86.50
2019-05-10T13:54:16.264Z,86.00
2019-05-10T13:56:52.277Z,83.40
2019-05-10T13:59:17.775Z,80.70
2019-05-10T14:01:49.528Z,80.80
2019-05-10T14:04:15.874Z,78.50
2019-05-10T14:06:45.435Z,82.50
2019-05-10T14:09:14.413Z,83.50
2019-05-10T14:11:46.843Z,84.20
2019-05-10T14:14:14.604Z,88.20
2019-05-10T14:16:44.522Z,84.80
2019-05-10T14:19:16.068Z,82.10
2019-05-10T14:21:44.564Z,83.20
2019-05-10T14:24:15.102Z,82.30
2019-05-10T14:26:43.685Z,86.10
2019-05-10T14:29:12.585Z,81.70
2019-05-10T14:31:41.726Z,80.80
2019-05-10T14:34:15.208Z,85.40
2019-05-10T14:36:41.650Z,80.50
2019-05-10T14:39:28.010Z,78.60
2019-05-10T14:42:10.858Z,80.20
2019-05-10T14:44:40.051Z,81.50
2019-05-10T14:47:11.073Z,78.40
2019-05-10T14:49:42.002Z,76.80
2019-05-10T14:52:12.688Z,78.40
2019-05-10T14:54:44.049Z,79.00
2019-05-10T14:57:11.588Z,79.80
2019-05-10T14:59:40.708Z,80.20
2019-05-10T15:02:10.589Z,80.40
2019-05-10T15:04:45.264Z,82.20
2019-05-10T15:07:14.494Z,81.40
2019-05-10T15:09:41.323Z,79.90
2019-05-10T15:12:10.117Z,80.00
2019-05-10T15:14:39.323Z,77.90
2019-05-10T15:17:10.412Z,77.40
2019-05-10T15:19:38.842Z,80.00
2019-05-10T15:22:07.110Z,77.20
2019-05-10T15:24:35.495Z,76.10
2019-05-10T15:27:10.293Z,74.60
2019-05-10T15:29:38.973Z,75.70
2019-05-10T15:32:13.787Z,75.90
2019-05-10T15:35:05.103Z,75.70
2019-05-10T15:37:21.804Z,76.80
2019-05-10T15:39:50.469Z,75.20
2019-05-10T15:42:21.828Z,75.30
2019-05-10T15:44:49.749Z,77.30
2019-05-10T15:47:20.639Z,78.20
2019-05-10T15:49:48.532Z,79.80
2019-05-10T15:52:18.255Z,77.40
2019-05-10T15:54:47.620Z,79.60
2019-05-10T15:57:20.336Z,79.40
2019-05-10T15:59:50.606Z,81.60
2019-05-10T16:02:16.630Z,81.10
2019-05-10T16:04:44.947Z,84.50
2019-05-10T16:07:14.442Z,85.80
2019-05-10T16:09:44.255Z,85.50
2019-05-10T16:12:12.654Z,86.00
2019-05-10T16:14:43.486Z,86.80
2019-05-10T16:17:16.469Z,87.50
2019-05-10T16:19:41.209Z,90.20
2019-05-10T16:22:11.248Z,92.40
2019-05-10T16:24:39.795Z,93.80
2019-05-10T16:27:08.462Z,95.00
2019-05-10T16:29:39.719Z,95.80
2019-05-10T16:32:09.936Z,95.60
2019-05-10T16:34:38.404Z,94.70
2019-05-10T16:37:07.540Z,95.60
2019-05-10T16:39:36.041Z,95.70
2019-05-10T16:42:04.428Z,96.40
2019-05-10T16:44:33.006Z,95.80
2019-05-10T16:47:04.763Z,96.10
2019-05-10T16:49:35.327Z,95.90
2019-05-10T16:52:08.239Z,95.80
2019-05-10T16:54:37.817Z,96.40
2019-05-10T16:57:06.316Z,96.50
2019-05-10T16:59:35.327Z,97.30
2019-05-10T17:02:06.567Z,97.60
2019-05-10T17:04:37.862Z,97.70
2019-05-10T17:07:06.578Z,98.00
2019-05-10T17:09:35.215Z,98.30
2019-05-10T17:12:10.957Z,97.80
2019-05-10T17:14:41.272Z,98.30
2019-05-10T17:17:13.846Z,98.20
2019-05-10T17:19:46.334Z,97.40
2019-05-10T17:22:15.726Z,96.20
2019-05-10T17:24:57.080Z,96.60
2019-05-10T17:27:26.869Z,96.30
2019-05-10T17:30:00.461Z,97.10
2019-05-10T17:32:36.135Z,97.20
2019-05-10T17:35:07.155Z,97.50
2019-05-10T17:37:44.622Z,96.30
2019-05-10T17:40:14.323Z,97.00
2019-05-10T17:42:43.385Z,97.30
2019-05-10T17:45:12.291Z,97.70
2019-05-10T17:47:42.824Z,98.20
2019-05-10T17:50:14.642Z,98.40
2019-05-10T17:52:50.256Z,98.50
2019-05-10T17:55:18.525Z,98.40
2019-05-10T17:57:48.727Z,98.60
2019-05-10T18:00:18.829Z,98.80
2019-05-10T18:02:50.078Z,99.20
2019-05-10T18:05:19.236Z,99.40
2019-05-10T18:07:48.748Z,99.30
2019-05-10T18:10:20.549Z,99.60
2019-05-10T18:12:50.336Z,99.90
2019-05-10T18:15:19.717Z,99.90
2019-05-10T18:17:48.088Z,99.90
2019-05-10T18:20:20.395Z,99.90
2019-05-10T18:22:49.502Z,99.90
2019-05-10T18:25:20.242Z,99.90
2019-05-10T18:27:48.964Z,99.90
2019-05-10T18:30:18.213Z,99.90
2019-05-10T18:32:51.765Z,99.90
2019-05-10T18:35:21.856Z,99.90
2019-05-10T18:37:53.595Z,99.90
2019-05-10T18:40:25.213Z,99.90
2019-05-10T18:42:57.978Z,99.90
2019-05-10T18:45:28.630Z,99.90
2019-05-10T18:47:57.436Z,99.90
2019-05-10T18:50:26.278Z,99.90
2019-05-10T18:52:55.302Z,99.90
2019-05-10T18:55:24.783Z,99.90
2019-05-10T18:57:53.340Z,99.90
2019-05-10T19:00:22.904Z,99.90
2019-05-10T19:02:55.151Z,99.90
2019-05-10T19:05:25.373Z,99.90
2019-05-10T19:08:03.301Z,99.90
2019-05-10T19:10:22.704Z,99.90
2019-05-10T19:13:00.103Z,99.90
2019-05-10T19:15:22.056Z,99.90
2019-05-10T19:17:50.473Z,99.90
2019-05-10T19:20:19.504Z,99.90
2019-05-10T19:22:47.991Z,99.90
2019-05-10T19:25:16.577Z,99.90
2019-05-10T19:27:50.624Z,99.90
2019-05-10T19:30:20.237Z,99.90
2019-05-10T19:32:51.296Z,99.90
2019-05-10T19:35:16.540Z,99.90
2019-05-10T19:37:46.495Z,99.90
2019-05-10T19:40:14.812Z,99.90
2019-05-10T19:42:44.966Z,99.90
2019-05-10T19:45:19.684Z,99.90
2019-05-10T19:47:55.434Z,99.90
2019-05-10T19:50:24.200Z,99.90
2019-05-10T19:52:51.387Z,99.90
2019-05-10T19:55:21.794Z,99.90
2019-05-10T19:57:54.760Z,99.90
2019-05-10T20:00:26.731Z,99.90
2019-05-10T20:02:56.045Z,99.90
2019-05-10T20:05:25.900Z,99.90
2019-05-10T20:07:54.967Z,99.90
2019-05-10T20:10:23.904Z,99.90
2019-05-10T20:12:52.526Z,99.90
2019-05-10T20:15:21.037Z,99.90
2019-05-10T20:17:50.030Z,99.90
2019-05-10T20:20:19.061Z,99.90
2019-05-10T20:22:48.439Z,99.90
2019-05-10T20:25:17.620Z,99.90
2019-05-10T20:27:46.640Z,99.90
2019-05-10T20:30:15.045Z,99.90
2019-05-10T20:32:44.528Z,99.90
2019-05-10T20:35:14.714Z,99.90
2019-05-10T20:37:43.867Z,99.90
2019-05-10T20:40:12.268Z,99.90
2019-05-10T20:42:41.984Z,99.90
2019-05-10T20:45:10.679Z,99.90
2019-05-10T20:47:39.205Z,99.90
2019-05-10T20:50:07.708Z,99.90
2019-05-10T20:52:36.320Z,99.90
2019-05-10T20:55:05.771Z,99.90
2019-05-10T20:57:34.326Z,99.90
2019-05-10T21:00:03.245Z,99.90
2019-05-10T21:02:31.633Z,99.90
2019-05-10T21:05:00.283Z,99.90
2019-05-10T21:07:28.907Z,99.90
2019-05-10T21:09:57.572Z,99.90
2019-05-10T21:12:26.152Z,99.90
2019-05-10T21:14:54.708Z,99.90
2019-05-10T21:17:23.336Z,99.90
2019-05-10T21:19:52.271Z,99.90
2019-05-10T21:22:20.756Z,99.90
2019-05-10T21:24:49.712Z,99.90
2019-05-10T21:27:18.176Z,99.90
2019-05-10T21:29:46.851Z,99.90
2019-05-10T21:32:15.405Z,99.90
2019-05-10T21:34:44.119Z,99.90
2019-05-10T21:37:15.213Z,99.90
2019-05-10T21:39:43.629Z,99.90
2019-05-10T21:42:12.397Z,99.90
2019-05-10T21:44:41.563Z,99.90
2019-05-10T21:47:10.547Z,99.90
2019-05-10T21:49:39.769Z,99.80
2019-05-10T21:52:08.840Z,99.90
2019-05-10T21:54:37.950Z,99.40
2019-05-10T21:57:10.287Z,99.90
2019-05-10T21:59:38.553Z,99.90
2019-05-10T22:02:11.025Z,99.90
2019-05-10T22:04:39.697Z,99.90
2019-05-10T22:07:10.521Z,99.90
2019-05-10T22:09:39.369Z,99.90
2019-05-10T22:12:09.473Z,99.90
2019-05-10T22:14:38.663Z,99.90
2019-05-10T22:17:09.690Z,99.90
2019-05-10T22:19:38.860Z,99.90
2019-05-10T22:22:08.997Z,99.90
2019-05-10T22:24:37.751Z,99.90
2019-05-10T22:27:06.467Z,99.90
2019-05-10T22:29:35.278Z,99.90
2019-05-10T22:32:03.950Z,99.90
2019-05-10T22:34:32.878Z,99.90
2019-05-10T22:37:01.630Z,99.90
2019-05-10T22:39:30.196Z,99.90
2019-05-10T22:42:00.351Z,99.90
2019-05-10T22:44:28.803Z,99.90
2019-05-10T22:46:57.304Z,99.90
2019-05-10T22:49:25.829Z,99.30
2019-05-10T22:51:54.500Z,99.90
2019-05-10T22:54:22.936Z,99.90
2019-05-10T22:56:51.954Z,99.90
2019-05-10T22:59:20.796Z,99.90
2019-05-10T23:01:49.331Z,99.90
2019-05-10T23:04:18.016Z,99.90
2019-05-10T23:06:46.602Z,99.90
2019-05-10T23:09:24.694Z,99.90
2019-05-10T23:11:46.014Z,99.90
2019-05-10T23:14:14.918Z,99.90
2019-05-10T23:16:43.951Z,99.90
2019-05-10T23:19:13.259Z,99.90
2019-05-10T23:21:42.082Z,99.90
2019-05-10T23:24:13.041Z,99.90
2019-05-10T23:26:42.532Z,99.90
2019-05-10T23:29:11.925Z,99.90
2019-05-10T23:31:42.706Z,99.90
2019-05-10T23:34:11.592Z,99.90
2019-05-10T23:36:42.552Z,99.90
2019-05-10T23:39:11.124Z,99.90
2019-05-10T23:41:39.721Z,99.90
2019-05-10T23:44:08.293Z,99.90
2019-05-10T23:46:36.854Z,99.90
2019-05-10T23:49:05.458Z,99.90
2019-05-10T23:51:34.220Z,99.90
2019-05-10T23:54:03.119Z,99.90
2019-05-10T23:56:35.229Z,99.90
2019-05-10T23:59:04.703Z,99.90
